createdAt,value
2018-05-04T00:00:16.756Z,2.60
2018-05-04T00:02:45.109Z,2.63
2018-05-04T00:05:13.470Z,2.37
2018-05-04T00:07:41.862Z,2.80
2018-05-04T00:10:10.250Z,2.97
2018-05-04T00:12:38.607Z,3.17
2018-05-04T00:15:07.006Z,3.10
2018-05-04T00:17:35.371Z,2.53
2018-05-04T00:20:03.732Z,2.70
2018-05-04T00:22:32.115Z,3.63
2018-05-04T00:25:00.470Z,3.10
2018-05-04T00:27:29.214Z,3.50
2018-05-04T00:29:57.774Z,2.80
2018-05-04T00:32:26.178Z,3.37
2018-05-04T00:34:54.544Z,3.10
2018-05-04T00:37:22.920Z,3.13
2018-05-04T00:39:51.303Z,3.60
2018-05-04T00:42:19.678Z,3.07
2018-05-04T00:44:48.048Z,3.17
2018-05-04T00:47:16.411Z,3.00
2018-05-04T00:49:44.787Z,3.50
2018-05-04T00:52:13.215Z,3.47
2018-05-04T00:54:41.569Z,3.40
2018-05-04T00:57:09.924Z,2.60
2018-05-04T00:59:38.340Z,4.27
2018-05-04T01:02:07.442Z,3.20
2018-05-04T01:04:35.814Z,3.47
2018-05-04T01:07:04.187Z,4.03
2018-05-04T01:09:32.666Z,2.97
2018-05-04T01:12:01.019Z,3.00
2018-05-04T01:14:29.432Z,3.30
2018-05-04T01:16:57.802Z,3.27
2018-05-04T01:19:26.182Z,3.40
2018-05-04T01:21:54.571Z,3.60
2018-05-04T01:24:22.950Z,3.87
2018-05-04T01:26:51.328Z,4.00
2018-05-04T01:29:19.710Z,3.50
2018-05-04T01:31:48.081Z,3.70
2018-05-04T01:34:16.443Z,3.73
2018-05-04T01:36:44.838Z,3.50
2018-05-04T01:39:13.206Z,3.60
2018-05-04T01:41:41.610Z,3.83
2018-05-04T01:44:09.993Z,3.90
2018-05-04T01:46:38.354Z,3.70
2018-05-04T01:49:06.797Z,4.40
2018-05-04T01:51:35.130Z,3.83
2018-05-04T01:54:03.498Z,4.80
2018-05-04T01:56:31.873Z,3.83
2018-05-04T01:59:00.251Z,3.97
2018-05-04T02:01:28.607Z,3.83
2018-05-04T02:03:56.965Z,4.10
2018-05-04T02:06:25.414Z,3.70
2018-05-04T02:08:53.774Z,4.60
2018-05-04T02:11:22.252Z,4.67
2018-05-04T02:13:50.677Z,3.50
2018-05-04T02:16:19.418Z,4.10
2018-05-04T02:18:48.393Z,3.97
2018-05-04T02:21:16.808Z,4.73
2018-05-04T02:23:45.184Z,4.20
2018-05-04T02:26:13.534Z,3.43
2018-05-04T02:28:41.921Z,4.10
2018-05-04T02:31:10.280Z,3.90
2018-05-04T02:33:38.651Z,3.87
2018-05-04T02:36:07.028Z,4.27
2018-05-04T02:38:35.390Z,3.20
2018-05-04T02:41:04.170Z,3.87
2018-05-04T02:43:32.616Z,4.80
2018-05-04T02:46:00.970Z,4.37
2018-05-04T02:48:29.330Z,4.00
2018-05-04T02:50:57.714Z,4.20
2018-05-04T02:53:26.091Z,4.17
2018-05-04T02:55:54.503Z,3.90
2018-05-04T02:58:22.879Z,4.30
2018-05-04T03:00:51.236Z,5.50
2018-05-04T03:03:19.597Z,3.57
2018-05-04T03:05:47.999Z,4.70
2018-05-04T03:08:16.390Z,4.00
2018-05-04T03:10:44.782Z,4.33
2018-05-04T03:13:13.201Z,3.30
2018-05-04T03:15:41.962Z,3.87
2018-05-04T03:18:10.332Z,4.50
2018-05-04T03:20:38.716Z,5.77
2018-05-04T03:23:07.094Z,4.07
2018-05-04T03:25:35.455Z,4.20
2018-05-04T03:28:03.827Z,4.77
2018-05-04T03:30:33.813Z,4.70
2018-05-04T03:33:02.170Z,4.10
2018-05-04T03:35:30.950Z,3.93
2018-05-04T03:37:59.323Z,3.97
2018-05-04T03:40:27.686Z,5.23
2018-05-04T03:42:56.118Z,5.20
2018-05-04T03:45:24.438Z,4.50
2018-05-04T03:47:52.806Z,5.17
2018-05-04T03:50:21.630Z,4.60
2018-05-04T03:52:50.849Z,5.20
2018-05-04T03:55:19.666Z,4.87
2018-05-04T03:58:05.890Z,4.70
2018-05-04T04:00:51.945Z,4.23
2018-05-04T04:03:38.292Z,4.53
2018-05-04T04:06:06.707Z,6.13
2018-05-04T04:08:35.566Z,4.67
2018-05-04T04:11:03.941Z,4.80
2018-05-04T04:13:32.302Z,4.20
2018-05-04T04:16:00.667Z,5.67
2018-05-04T04:18:29.095Z,4.77
2018-05-04T04:20:57.558Z,5.40
2018-05-04T04:23:25.935Z,5.40
2018-05-04T04:25:54.315Z,4.80
2018-05-04T04:28:22.693Z,4.10
2018-05-04T04:30:51.199Z,4.30
2018-05-04T04:33:19.547Z,3.27
2018-05-04T04:35:47.922Z,4.00
2018-05-04T04:38:16.301Z,3.60
2018-05-04T04:40:44.681Z,3.87
2018-05-04T04:43:13.086Z,3.30
2018-05-04T04:45:41.515Z,3.73
2018-05-04T04:48:09.893Z,3.80
2018-05-04T04:50:38.265Z,4.27
2018-05-04T04:53:06.627Z,4.27
2018-05-04T04:55:35.440Z,3.50
2018-05-04T04:58:03.799Z,2.80
2018-05-04T05:00:32.213Z,4.40
2018-05-04T05:03:00.597Z,3.80
2018-05-04T05:05:28.982Z,2.57
2018-05-04T05:07:57.326Z,2.13
2018-05-04T05:10:25.747Z,2.47
2018-05-04T05:12:54.127Z,3.03
2018-05-04T05:15:22.494Z,2.60
2018-05-04T05:17:51.397Z,2.70
2018-05-04T05:20:19.846Z,2.30
2018-05-04T05:22:48.218Z,2.80
2018-05-04T05:25:16.607Z,3.40
2018-05-04T05:27:44.985Z,2.53
2018-05-04T05:30:13.370Z,1.80
2018-05-04T05:32:41.785Z,2.13
2018-05-04T05:35:10.238Z,2.80
2018-05-04T05:37:38.623Z,2.43
2018-05-04T05:40:07.002Z,2.67
2018-05-04T05:42:35.350Z,2.93
2018-05-04T05:45:03.727Z,4.50
2018-05-04T05:47:32.126Z,2.87
2018-05-04T05:50:00.502Z,4.73
2018-05-04T05:52:28.969Z,6.33
2018-05-04T05:54:57.365Z,4.00
2018-05-04T05:57:25.742Z,2.90
2018-05-04T05:59:54.121Z,2.70
2018-05-04T06:02:22.519Z,3.03
2018-05-04T06:04:50.898Z,2.90
2018-05-04T06:07:19.466Z,2.03
2018-05-04T06:09:47.849Z,2.23
2018-05-04T06:12:16.209Z,2.17
2018-05-04T06:14:44.553Z,3.03
2018-05-04T06:17:13.358Z,2.70
2018-05-04T06:19:41.789Z,3.10
2018-05-04T06:22:10.164Z,2.20
2018-05-04T06:24:38.535Z,2.40
2018-05-04T06:27:06.900Z,2.53
2018-05-04T06:29:35.409Z,2.77
2018-05-04T06:32:03.789Z,2.10
2018-05-04T06:34:32.187Z,2.60
2018-05-04T06:37:00.547Z,2.30
2018-05-04T06:39:28.982Z,2.07
2018-05-04T06:41:57.361Z,1.93
2018-05-04T06:44:25.723Z,2.27
2018-05-04T06:46:54.593Z,2.00
2018-05-04T06:49:23.003Z,1.77
2018-05-04T06:51:51.362Z,1.43
2018-05-04T06:54:19.811Z,1.60
2018-05-04T06:56:48.251Z,1.53
2018-05-04T06:59:16.635Z,1.77
2018-05-04T07:01:45.025Z,1.50
2018-05-04T07:04:13.393Z,1.53
2018-05-04T07:06:41.803Z,1.57
2018-05-04T07:09:10.187Z,1.40
2018-05-04T07:11:38.767Z,1.50
2018-05-04T07:14:07.131Z,2.10
2018-05-04T07:16:35.518Z,1.60
2018-05-04T07:19:03.907Z,1.43
2018-05-04T07:21:32.281Z,1.40
2018-05-04T07:24:00.755Z,1.90
2018-05-04T07:26:29.103Z,1.80
2018-05-04T07:28:57.463Z,1.27
2018-05-04T07:31:26.310Z,1.70
2018-05-04T07:33:54.677Z,1.40
2018-05-04T07:36:23.031Z,1.50
2018-05-04T07:38:51.742Z,1.33
2018-05-04T07:41:20.229Z,1.20
2018-05-04T07:43:48.601Z,1.20
2018-05-04T07:46:16.995Z,1.10
2018-05-04T07:48:45.393Z,1.80
2018-05-04T07:51:13.734Z,1.40
2018-05-04T07:53:42.123Z,1.10
2018-05-04T07:56:10.490Z,1.50
2018-05-04T07:58:38.848Z,1.30
2018-05-04T08:01:08.354Z,1.47
2018-05-04T08:03:36.767Z,1.20
2018-05-04T08:06:05.131Z,1.63
2018-05-04T08:08:33.618Z,1.50
2018-05-04T08:11:02.331Z,1.10
2018-05-04T08:13:31.097Z,1.00
2018-05-04T08:15:59.478Z,1.37
2018-05-04T08:18:27.832Z,1.50
2018-05-04T08:20:56.211Z,1.10
2018-05-04T08:23:24.610Z,1.53
2018-05-04T08:25:52.969Z,1.30
2018-05-04T08:28:21.322Z,1.20
2018-05-04T08:30:50.140Z,1.33
2018-05-04T08:33:18.501Z,1.10
2018-05-04T08:35:46.940Z,1.23
2018-05-04T08:38:15.366Z,1.30
2018-05-04T08:40:44.180Z,1.63
2018-05-04T08:43:12.600Z,1.67
2018-05-04T08:45:41.374Z,0.90
2018-05-04T08:48:09.731Z,1.43
2018-05-04T08:50:38.091Z,1.20
2018-05-04T08:53:06.476Z,1.27
2018-05-04T08:55:34.852Z,1.37
2018-05-04T08:58:03.434Z,1.20
2018-05-04T09:00:31.848Z,1.20
2018-05-04T09:03:00.191Z,1.17
2018-05-04T09:05:28.576Z,1.07
2018-05-04T09:07:56.954Z,1.10
2018-05-04T09:10:25.313Z,0.70
2018-05-04T09:12:53.664Z,0.97
2018-05-04T09:15:22.430Z,1.03
2018-05-04T09:17:50.794Z,1.63
2018-05-04T09:20:19.152Z,1.30
2018-05-04T09:22:47.546Z,1.50
2018-05-04T09:25:16.012Z,0.80
2018-05-04T09:27:44.290Z,0.67
2018-05-04T09:30:12.691Z,1.07
2018-05-04T09:32:41.031Z,1.20
2018-05-04T09:35:09.439Z,0.90
2018-05-04T09:37:37.809Z,1.00
2018-05-04T09:40:06.198Z,2.57
2018-05-04T09:42:34.565Z,0.80
2018-05-04T09:45:03.009Z,1.97
2018-05-04T09:47:31.759Z,1.13
2018-05-04T09:50:00.117Z,2.53
2018-05-04T09:52:28.493Z,1.17
2018-05-04T09:54:57.540Z,1.20
2018-05-04T09:57:26.290Z,1.17
2018-05-04T09:59:55.205Z,1.13
2018-05-04T10:02:23.648Z,1.10
2018-05-04T10:04:52.048Z,0.90
2018-05-04T10:07:20.441Z,0.90
2018-05-04T10:09:48.906Z,1.20
2018-05-04T10:12:17.255Z,1.30
2018-05-04T10:14:45.633Z,1.20
2018-05-04T10:17:14.004Z,0.90
2018-05-04T10:19:42.372Z,1.37
2018-05-04T10:22:10.760Z,0.90
2018-05-04T10:24:39.111Z,1.80
2018-05-04T10:27:07.861Z,1.40
2018-05-04T10:29:36.345Z,2.00
2018-05-04T10:32:04.719Z,1.30
2018-05-04T10:34:33.113Z,1.20
2018-05-04T10:37:01.502Z,1.30
2018-05-04T10:39:29.857Z,1.47
2018-05-04T10:41:58.233Z,1.53
2018-05-04T10:44:26.604Z,1.43
2018-05-04T10:46:54.992Z,1.27
2018-05-04T10:49:23.353Z,1.63
2018-05-04T10:51:51.764Z,1.47
2018-05-04T10:54:20.132Z,2.07
2018-05-04T10:56:48.486Z,1.30
2018-05-04T10:59:16.859Z,1.73
2018-05-04T11:01:45.233Z,2.10
2018-05-04T11:04:13.590Z,1.30
2018-05-04T11:06:42.359Z,1.70
2018-05-04T11:09:10.734Z,1.40
2018-05-04T11:11:39.114Z,1.07
2018-05-04T11:14:07.975Z,1.63
2018-05-04T11:16:36.351Z,1.20
2018-05-04T11:19:04.746Z,1.70
2018-05-04T11:21:33.225Z,1.80
2018-05-04T11:24:02.049Z,1.37
2018-05-04T11:26:30.904Z,2.13
2018-05-04T11:28:59.376Z,2.13
2018-05-04T11:31:27.735Z,3.47
2018-05-04T11:33:56.243Z,2.10
2018-05-04T11:36:24.675Z,2.60
2018-05-04T11:38:53.132Z,2.00
2018-05-04T11:41:21.470Z,1.80
2018-05-04T11:43:49.855Z,2.87
2018-05-04T11:46:18.248Z,2.00
2018-05-04T11:48:46.598Z,1.77
2018-05-04T11:51:14.982Z,1.90
2018-05-04T11:53:43.352Z,2.20
2018-05-04T11:56:11.723Z,2.30
2018-05-04T11:58:40.116Z,2.20
2018-05-04T12:01:08.475Z,2.30
2018-05-04T12:03:36.850Z,2.67
2018-05-04T12:06:05.288Z,2.00
2018-05-04T12:08:33.770Z,1.67
2018-05-04T12:11:02.136Z,2.03
2018-05-04T12:13:30.607Z,2.00
2018-05-04T12:15:58.958Z,1.70
2018-05-04T12:18:27.327Z,2.13
2018-05-04T12:20:55.759Z,2.17
2018-05-04T12:23:24.170Z,1.40
2018-05-04T12:25:52.937Z,1.70
2018-05-04T12:28:21.891Z,1.67
2018-05-04T12:30:50.249Z,1.90
2018-05-04T12:33:18.610Z,1.40
2018-05-04T12:35:47.424Z,2.00
2018-05-04T12:38:15.782Z,1.50
2018-05-04T12:40:44.685Z,1.80
2018-05-04T12:43:13.142Z,1.80
2018-05-04T12:45:41.914Z,1.87
2018-05-04T12:48:10.380Z,1.77
2018-05-04T12:50:38.766Z,1.90
2018-05-04T12:53:07.239Z,1.73
2018-05-04T12:55:35.605Z,1.40
2018-05-04T12:58:03.970Z,1.93
2018-05-04T13:00:32.382Z,1.73
2018-05-04T13:03:00.737Z,1.23
2018-05-04T13:05:29.152Z,1.20
2018-05-04T13:07:57.526Z,1.60
2018-05-04T13:10:25.985Z,1.57
2018-05-04T13:12:54.367Z,1.80
2018-05-04T13:15:22.742Z,1.33
2018-05-04T13:17:51.103Z,1.53
2018-05-04T13:20:19.485Z,1.70
2018-05-04T13:22:48.397Z,2.90
2018-05-04T13:25:16.867Z,1.50
2018-05-04T13:27:45.502Z,1.77
2018-05-04T13:30:14.249Z,1.57
2018-05-04T13:32:43.432Z,1.50
2018-05-04T13:35:12.071Z,5.87
2018-05-04T13:37:40.925Z,1.40
2018-05-04T13:40:09.379Z,1.80
2018-05-04T13:42:38.010Z,1.27
2018-05-04T13:45:06.381Z,2.00
2018-05-04T13:47:34.787Z,1.03
2018-05-04T13:50:03.553Z,1.70
2018-05-04T13:52:32.317Z,1.50
2018-05-04T13:55:00.694Z,4.57
2018-05-04T13:57:29.074Z,1.50
2018-05-04T13:59:57.607Z,2.37
2018-05-04T14:02:25.971Z,1.20
2018-05-04T14:04:54.752Z,1.20
2018-05-04T14:07:23.844Z,1.80
2018-05-04T14:09:52.200Z,1.33
2018-05-04T14:12:20.603Z,1.50
2018-05-04T14:14:49.054Z,1.47
2018-05-04T14:17:17.406Z,10.57
2018-05-04T14:19:45.830Z,3.90
2018-05-04T14:22:14.198Z,1.90
2018-05-04T14:24:42.795Z,1.27
2018-05-04T14:27:11.223Z,4.47
2018-05-04T14:29:39.582Z,1.70
2018-05-04T14:32:09.247Z,1.70
2018-05-04T14:34:37.621Z,0.97
2018-05-04T14:37:05.973Z,1.10
2018-05-04T14:39:34.382Z,1.27
2018-05-04T14:42:02.858Z,0.90
2018-05-04T14:44:31.222Z,1.10
2018-05-04T14:46:59.590Z,1.37
2018-05-04T14:49:28.005Z,1.60
2018-05-04T14:51:56.421Z,1.70
2018-05-04T14:54:25.805Z,1.30
2018-05-04T14:56:54.171Z,1.23
2018-05-04T14:59:22.557Z,1.30
2018-05-04T15:01:50.924Z,1.33
2018-05-04T15:04:19.297Z,1.17
2018-05-04T15:06:47.646Z,1.43
2018-05-04T15:09:16.044Z,1.30
2018-05-04T15:11:44.410Z,1.20
2018-05-04T15:14:12.768Z,1.37
2018-05-04T15:16:41.234Z,1.17
2018-05-04T15:19:09.575Z,1.20
2018-05-04T15:21:37.930Z,1.20
2018-05-04T15:24:06.292Z,1.20
2018-05-04T15:26:34.668Z,1.50
2018-05-04T15:29:03.025Z,1.10
2018-05-04T15:31:31.851Z,1.30
2018-05-04T15:34:00.200Z,1.30
2018-05-04T15:36:28.953Z,1.60
2018-05-04T15:38:57.331Z,1.53
2018-05-04T15:41:25.793Z,1.20
2018-05-04T15:43:54.160Z,1.10
2018-05-04T15:46:22.517Z,1.27
2018-05-04T15:48:56.376Z,0.97
2018-05-04T15:54:39.092Z,2.10
2018-05-04T15:57:07.811Z,1.50
2018-05-04T15:59:36.195Z,1.40
2018-05-04T16:02:04.973Z,1.47
2018-05-04T16:04:33.424Z,1.23
2018-05-04T16:07:01.836Z,1.60
2018-05-04T16:09:30.227Z,1.20
2018-05-04T16:11:58.985Z,1.13
2018-05-04T16:14:27.341Z,1.77
2018-05-04T16:16:55.735Z,1.27
2018-05-04T16:19:24.090Z,1.47
2018-05-04T16:21:52.457Z,1.10
2018-05-04T16:24:20.822Z,1.37
2018-05-04T16:26:49.588Z,1.30
2018-05-04T16:29:17.957Z,1.60
2018-05-04T16:31:46.363Z,2.10
2018-05-04T16:34:15.111Z,2.10
2018-05-04T16:36:43.593Z,1.40
2018-05-04T16:39:11.981Z,1.53
2018-05-04T16:41:40.417Z,1.50
2018-05-04T16:44:08.749Z,1.53
2018-05-04T16:49:46.091Z,1.30
2018-05-04T16:52:14.538Z,1.63
2018-05-04T16:54:42.913Z,1.63
2018-05-04T16:57:11.567Z,1.83
2018-05-04T16:59:39.947Z,1.60
2018-05-04T17:02:09.107Z,1.60
2018-05-04T17:04:37.874Z,1.30
2018-05-04T17:07:06.638Z,2.03
2018-05-04T17:09:34.997Z,1.63
2018-05-04T17:12:03.367Z,1.73
2018-05-04T17:14:31.782Z,1.60
2018-05-04T17:17:00.151Z,1.60
2018-05-04T17:19:28.543Z,1.30
2018-05-04T17:21:56.958Z,2.20
2018-05-04T17:24:25.703Z,1.57
2018-05-04T17:26:54.060Z,1.70
2018-05-04T17:29:22.456Z,3.00
2018-05-04T17:31:50.820Z,1.80
2018-05-04T17:34:19.338Z,1.87
2018-05-04T17:36:47.727Z,2.03
2018-05-04T17:39:16.089Z,2.50
2018-05-04T17:41:44.439Z,2.33
2018-05-04T17:44:12.823Z,2.70
2018-05-04T17:46:41.258Z,2.40
2018-05-04T17:49:10.008Z,2.40
2018-05-04T17:51:38.387Z,1.70
2018-05-04T17:54:06.767Z,2.23
2018-05-04T17:56:35.214Z,2.20
2018-05-04T17:59:03.585Z,1.90
2018-05-04T18:01:31.952Z,1.57
2018-05-04T18:04:00.323Z,2.00
2018-05-04T18:06:28.743Z,2.40
2018-05-04T18:08:57.129Z,2.20
2018-05-04T18:11:25.503Z,2.50
2018-05-04T18:13:53.885Z,10.63
2018-05-04T18:16:22.234Z,2.30
2018-05-04T18:18:50.604Z,1.93
2018-05-04T18:21:18.975Z,2.30
2018-05-04T18:23:47.362Z,2.30
2018-05-04T18:28:50.829Z,2.10
2018-05-04T18:31:19.206Z,1.87
2018-05-04T18:33:47.570Z,2.03
2018-05-04T18:36:15.942Z,2.10
2018-05-04T18:38:44.314Z,1.93
2018-05-04T18:41:12.663Z,3.23
2018-05-04T18:43:41.049Z,3.10
2018-05-04T18:46:09.422Z,3.60
2018-05-04T18:48:37.856Z,2.43
2018-05-04T18:51:06.331Z,1.80
2018-05-04T18:53:34.795Z,3.40
2018-05-04T18:56:03.167Z,2.50
2018-05-04T18:58:32.143Z,2.20
2018-05-04T19:01:00.508Z,2.27
2018-05-04T19:03:29.280Z,2.67
2018-05-04T19:05:58.057Z,2.90
2018-05-04T19:08:26.438Z,2.87
2018-05-04T19:10:54.810Z,2.50
2018-05-04T19:13:23.182Z,2.33
2018-05-04T19:15:51.540Z,2.77
2018-05-04T19:18:19.928Z,3.60
2018-05-04T19:20:48.309Z,3.20
2018-05-04T19:23:16.667Z,3.27
2018-05-04T19:25:45.026Z,2.80
2018-05-04T19:28:13.455Z,2.60
2018-05-04T19:30:41.830Z,3.00
2018-05-04T19:33:10.212Z,3.00
2018-05-04T19:35:38.619Z,2.10
2018-05-04T19:38:07.426Z,2.20
2018-05-04T19:40:35.787Z,2.50
2018-05-04T19:43:04.271Z,3.00
2018-05-04T19:45:33.120Z,2.90
2018-05-04T19:48:01.492Z,2.83
2018-05-04T19:50:29.894Z,2.43
2018-05-04T19:52:58.243Z,3.00
2018-05-04T19:55:26.634Z,3.17
2018-05-04T19:57:55.054Z,3.53
2018-05-04T20:00:23.801Z,2.60
2018-05-04T20:02:52.183Z,3.87
2018-05-04T20:05:20.575Z,2.93
2018-05-04T20:07:48.945Z,3.17
2018-05-04T20:10:17.341Z,3.33
2018-05-04T20:12:45.709Z,2.90
2018-05-04T20:15:14.105Z,3.33
2018-05-04T20:20:17.139Z,2.80
2018-05-04T20:22:45.519Z,2.97
2018-05-04T20:25:13.941Z,3.20
2018-05-04T20:27:42.316Z,2.60
2018-05-04T20:30:10.720Z,3.20
2018-05-04T20:32:39.179Z,3.23
2018-05-04T20:35:07.546Z,2.80
2018-05-04T20:37:35.915Z,3.80
2018-05-04T20:40:04.298Z,2.60
2018-05-04T20:42:32.680Z,3.40
2018-05-04T20:45:01.070Z,3.93
2018-05-04T20:47:29.447Z,3.47
2018-05-04T20:49:57.836Z,4.23
2018-05-04T20:52:26.518Z,3.20
2018-05-04T20:54:55.032Z,4.27
2018-05-04T20:57:23.579Z,3.20
2018-05-04T20:59:52.116Z,3.50
2018-05-04T21:02:20.861Z,3.60
2018-05-04T21:04:49.297Z,3.30
2018-05-04T21:07:17.685Z,2.97
2018-05-04T21:09:46.054Z,3.57
2018-05-04T21:12:14.461Z,4.13
2018-05-04T21:14:42.916Z,3.57
2018-05-04T21:17:11.294Z,3.30
2018-05-04T21:19:39.763Z,3.40
2018-05-04T21:22:08.706Z,3.27
2018-05-04T21:24:37.062Z,3.40
2018-05-04T21:27:05.478Z,3.60
2018-05-04T21:29:33.830Z,3.87
2018-05-04T21:32:02.206Z,4.10
2018-05-04T21:34:30.593Z,4.20
2018-05-04T21:36:58.952Z,3.60
2018-05-04T21:39:27.357Z,3.40
2018-05-04T21:41:55.733Z,4.13
2018-05-04T21:44:24.330Z,3.70
2018-05-04T21:46:52.706Z,2.90
2018-05-04T21:49:21.092Z,3.50
2018-05-04T21:51:49.547Z,4.27
2018-05-04T21:54:17.865Z,3.37
2018-05-04T21:56:46.307Z,3.50
2018-05-04T21:59:14.735Z,3.37
2018-05-04T22:01:43.071Z,4.60
2018-05-04T22:04:11.473Z,4.17
2018-05-04T22:06:39.941Z,4.47
2018-05-04T22:09:08.308Z,3.67
2018-05-04T22:11:36.759Z,3.90
2018-05-04T22:14:05.163Z,3.80
2018-05-04T22:16:33.770Z,3.40
2018-05-04T22:19:02.182Z,3.37
2018-05-04T22:21:30.995Z,3.53
2018-05-04T22:23:59.371Z,4.37
2018-05-04T22:26:27.847Z,3.77
2018-05-04T22:28:56.158Z,3.63
2018-05-04T22:31:24.531Z,3.23
2018-05-04T22:33:52.942Z,3.50
2018-05-04T22:36:21.286Z,3.40
2018-05-04T22:38:49.670Z,3.77
2018-05-04T22:41:18.042Z,3.80
2018-05-04T22:43:46.403Z,4.67
2018-05-04T22:46:14.772Z,3.47
2018-05-04T22:48:43.218Z,2.93
2018-05-04T22:51:11.594Z,3.37
2018-05-04T22:53:39.951Z,3.93
2018-05-04T22:56:08.328Z,3.33
2018-05-04T22:58:36.686Z,3.43
2018-05-04T23:01:05.055Z,3.50
2018-05-04T23:03:33.426Z,3.37
2018-05-04T23:06:01.774Z,3.63
2018-05-04T23:08:31.033Z,4.00
2018-05-04T23:10:59.453Z,4.10
2018-05-04T23:13:28.066Z,3.30
2018-05-04T23:15:56.478Z,4.50
2018-05-04T23:18:24.856Z,2.67
2018-05-04T23:20:53.265Z,3.50
2018-05-04T23:23:22.303Z,4.27
2018-05-04T23:25:50.671Z,3.67
2018-05-04T23:28:19.518Z,6.50
2018-05-04T23:30:47.883Z,3.63
2018-05-04T23:33:16.285Z,4.00
2018-05-04T23:35:44.641Z,3.70
2018-05-04T23:38:12.990Z,3.33
2018-05-04T23:40:41.385Z,3.63
2018-05-04T23:43:09.781Z,4.10
2018-05-04T23:45:38.134Z,4.43
2018-05-04T23:48:06.561Z,3.97
2018-05-04T23:50:35.008Z,3.70
2018-05-04T23:53:03.481Z,3.67
2018-05-04T23:55:31.887Z,5.30
2018-05-04T23:58:00.236Z,4.00
